createdAt,value
2022-08-18T00:01:25.193Z,16.40
2022-08-18T00:03:59.487Z,15.30
2022-08-18T00:06:32.014Z,15.70
2022-08-18T00:09:04.619Z,15.90
2022-08-18T00:11:42.198Z,15.30
2022-08-18T00:14:22.699Z,14.20
2022-08-18T00:16:54.105Z,16.20
2022-08-18T00:19:45.761Z,16.10
2022-08-18T00:22:16.147Z,15.70
2022-08-18T00:24:49.405Z,15.50
2022-08-18T00:27:31.512Z,15.00
2022-08-18T00:30:07.280Z,14.70
2022-08-18T00:32:40.805Z,14.20
2022-08-18T00:35:18.569Z,16.10
2022-08-18T00:37:49.267Z,14.90
2022-08-18T00:40:24.113Z,15.90
2022-08-18T00:42:59.167Z,15.50
2022-08-18T00:45:36.387Z,15.40
2022-08-18T00:48:07.637Z,15.10
2022-08-18T00:51:08.334Z,15.30
2022-08-18T00:54:13.700Z,14.70
2022-08-18T00:56:55.650Z,14.80
2022-08-18T00:59:48.571Z,15.30
2022-08-18T01:02:43.090Z,14.60
2022-08-18T01:05:21.978Z,14.90
2022-08-18T01:07:51.563Z,14.70
2022-08-18T01:10:23.349Z,14.60
2022-08-18T01:12:57.819Z,15.20
2022-08-18T01:15:30.354Z,15.50
2022-08-18T01:18:24.183Z,15.10
2022-08-18T01:21:41.502Z,15.30
2022-08-18T01:24:13.116Z,16.00
2022-08-18T01:26:49.856Z,14.90
2022-08-18T01:29:20.093Z,15.20
2022-08-18T01:31:56.460Z,14.70
2022-08-18T01:34:28.571Z,14.40
2022-08-18T01:36:57.765Z,15.60
2022-08-18T01:40:59.566Z,15.20
2022-08-18T01:42:17.444Z,14.80
2022-08-18T01:44:51.393Z,14.40
2022-08-18T01:47:20.907Z,14.70
2022-08-18T01:49:49.631Z,14.60
2022-08-18T01:52:21.546Z,14.60
2022-08-18T01:54:51.455Z,14.20
2022-08-18T01:57:21.173Z,13.40
2022-08-18T01:59:49.739Z,13.40
2022-08-18T02:02:25.264Z,14.30
2022-08-18T02:05:00.305Z,13.40
2022-08-18T02:07:36.005Z,14.60
2022-08-18T02:10:11.933Z,13.90
2022-08-18T02:12:42.094Z,13.70
2022-08-18T02:15:11.705Z,13.10
2022-08-18T02:17:44.396Z,13.20
2022-08-18T02:20:17.258Z,13.80
2022-08-18T02:22:47.627Z,12.40
2022-08-18T02:25:17.893Z,13.20
2022-08-18T02:27:46.846Z,13.50
2022-08-18T02:30:18.626Z,13.90
2022-08-18T02:32:47.192Z,13.50
2022-08-18T02:35:16.360Z,12.80
2022-08-18T02:37:48.415Z,12.50
2022-08-18T02:40:19.285Z,13.20
2022-08-18T02:42:48.085Z,11.80
2022-08-18T02:45:16.777Z,13.40
2022-08-18T02:47:45.840Z,12.60
2022-08-18T02:50:14.604Z,11.70
2022-08-18T02:52:43.240Z,11.80
2022-08-18T02:55:11.908Z,11.50
2022-08-18T02:57:49.074Z,12.00
2022-08-18T03:00:19.742Z,12.20
2022-08-18T03:02:54.625Z,11.90
2022-08-18T03:05:23.586Z,11.20
2022-08-18T03:07:52.302Z,11.70
2022-08-18T03:10:32.867Z,12.40
2022-08-18T03:13:03.000Z,12.40
2022-08-18T03:15:32.443Z,11.80
2022-08-18T03:18:02.611Z,11.90
2022-08-18T03:20:31.704Z,11.50
2022-08-18T03:23:05.854Z,11.10
2022-08-18T03:25:49.920Z,11.30
2022-08-18T03:28:18.824Z,12.00
2022-08-18T03:30:47.368Z,12.20
2022-08-18T03:33:15.973Z,11.70
2022-08-18T03:35:44.545Z,11.10
2022-08-18T03:38:13.173Z,11.40
2022-08-18T03:40:43.373Z,12.20
2022-08-18T03:43:49.655Z,12.30
2022-08-18T03:46:06.769Z,11.20
2022-08-18T03:48:36.111Z,11.60
2022-08-18T03:51:11.495Z,12.40
2022-08-18T03:53:41.022Z,10.10
2022-08-18T03:56:17.630Z,11.20
2022-08-18T03:58:54.271Z,12.10
2022-08-18T04:01:27.369Z,10.70
2022-08-18T04:04:02.372Z,9.40
2022-08-18T04:06:41.602Z,11.30
2022-08-18T04:09:13.982Z,10.60
2022-08-18T04:11:45.085Z,11.30
2022-08-18T04:14:17.817Z,9.60
2022-08-18T04:16:49.373Z,11.50
2022-08-18T04:19:26.757Z,10.80
2022-08-18T04:21:58.218Z,8.70
2022-08-18T04:24:31.249Z,9.50
2022-08-18T04:27:05.485Z,11.70
2022-08-18T04:29:34.047Z,10.90
2022-08-18T04:32:05.131Z,11.90
2022-08-18T04:34:34.413Z,11.30
2022-08-18T04:37:03.332Z,11.10
2022-08-18T04:39:32.136Z,10.00
2022-08-18T04:42:02.773Z,10.90
2022-08-18T04:44:31.930Z,11.00
2022-08-18T04:47:01.589Z,10.80
2022-08-18T04:49:32.119Z,10.80
2022-08-18T04:52:36.865Z,11.70
2022-08-18T04:55:09.700Z,9.90
2022-08-18T04:57:39.372Z,11.00
2022-08-18T05:00:12.902Z,11.00
2022-08-18T05:02:41.808Z,11.30
2022-08-18T05:05:11.319Z,11.70
2022-08-18T05:07:46.241Z,11.80
2022-08-18T05:10:17.965Z,11.80
2022-08-18T05:12:48.993Z,11.90
2022-08-18T05:15:19.123Z,11.60
2022-08-18T05:17:50.722Z,10.30
2022-08-18T05:20:20.283Z,11.90
2022-08-18T05:23:14.696Z,12.30
2022-08-18T05:26:06.247Z,11.50
2022-08-18T05:28:38.699Z,11.20
2022-08-18T05:31:14.743Z,12.60
2022-08-18T05:33:44.979Z,12.10
2022-08-18T05:36:36.145Z,10.90
2022-08-18T05:39:56.809Z,11.50
2022-08-18T05:43:05.493Z,11.70
2022-08-18T05:46:52.320Z,11.20
2022-08-18T05:49:40.603Z,11.90
2022-08-18T05:53:02.603Z,10.50
2022-08-18T05:56:24.381Z,11.10
2022-08-18T05:58:57.628Z,11.90
2022-08-18T06:01:43.368Z,12.20
2022-08-18T06:04:57.650Z,12.10
2022-08-18T06:08:45.989Z,12.90
2022-08-18T06:11:22.220Z,11.90
2022-08-18T06:13:54.940Z,11.10
2022-08-18T06:17:21.937Z,10.80
2022-08-18T06:20:19.842Z,15.90
2022-08-18T06:23:47.857Z,20.90
2022-08-18T06:27:42.083Z,15.10
2022-08-18T06:30:56.394Z,10.50
2022-08-18T06:42:59.775Z,11.20
2022-08-18T06:45:39.943Z,13.10
2022-08-18T06:48:33.290Z,10.90
2022-08-18T06:51:05.340Z,11.70
2022-08-18T06:55:10.104Z,11.80
2022-08-18T06:58:35.446Z,10.90
2022-08-18T07:03:01.367Z,10.80
2022-08-18T07:10:06.626Z,9.20
2022-08-18T07:14:53.705Z,10.90
2022-08-18T07:18:21.752Z,11.10
2022-08-18T07:27:11.394Z,10.10
2022-08-18T07:30:29.031Z,10.80
2022-08-18T07:33:26.891Z,11.20
2022-08-18T07:36:07.131Z,10.60
2022-08-18T07:38:57.289Z,9.80
2022-08-18T07:42:06.083Z,9.10
2022-08-18T07:45:06.100Z,10.50
2022-08-18T07:48:37.696Z,11.40
2022-08-18T07:51:36.875Z,9.60
2022-08-18T07:55:10.278Z,9.20
2022-08-18T07:58:30.945Z,9.90
2022-08-18T08:01:51.686Z,9.10
2022-08-18T08:05:08.834Z,9.60
2022-08-18T08:08:29.827Z,9.50
2022-08-18T08:11:54.768Z,9.00
2022-08-18T08:15:13.034Z,8.90
2022-08-18T08:18:04.995Z,9.30
2022-08-18T08:21:05.833Z,9.10
2022-08-18T08:24:18.484Z,9.60
2022-08-18T08:27:10.623Z,9.00
2022-08-18T08:30:06.851Z,9.10
2022-08-18T08:33:01.864Z,9.20
2022-08-18T08:36:07.929Z,8.80
2022-08-18T08:38:48.120Z,9.10
2022-08-18T08:41:31.960Z,8.90
2022-08-18T08:44:21.634Z,8.50
2022-08-18T08:47:22.973Z,8.80
2022-08-18T08:50:25.656Z,9.10
2022-08-18T08:53:18.449Z,10.00
2022-08-18T08:59:09.956Z,9.60
2022-08-18T09:01:46.794Z,8.10
2022-08-18T09:05:21.434Z,9.20
2022-08-18T09:08:13.557Z,8.90
2022-08-18T09:11:19.248Z,9.40
2022-08-18T09:14:44.446Z,8.40
2022-08-18T09:17:35.296Z,7.90
2022-08-18T09:20:14.796Z,8.80
2022-08-18T09:22:55.872Z,8.20
2022-08-18T09:25:39.342Z,8.40
2022-08-18T09:31:19.432Z,8.70
2022-08-18T09:37:41.330Z,8.40
2022-08-18T09:44:21.621Z,45.40
2022-08-18T09:46:57.557Z,39.90
2022-08-18T09:49:31.557Z,41.20
2022-08-18T09:52:26.619Z,13.80
2022-08-18T09:55:01.223Z,10.00
2022-08-18T09:57:42.367Z,7.60
2022-08-18T10:00:13.349Z,7.10
2022-08-18T10:02:47.576Z,8.40
2022-08-18T10:05:19.293Z,7.80
2022-08-18T10:08:21.435Z,7.50
2022-08-18T10:11:14.447Z,7.80
2022-08-18T10:14:09.783Z,7.50
2022-08-18T10:17:38.267Z,30.40
2022-08-18T10:20:39.262Z,27.00
2022-08-18T10:23:11.244Z,13.40
2022-08-18T10:25:48.443Z,8.90
2022-08-18T10:29:32.498Z,8.90
2022-08-18T10:32:00.987Z,10.10
2022-08-18T10:34:51.584Z,8.30
2022-08-18T10:37:49.050Z,8.50
2022-08-18T10:40:22.783Z,7.80
2022-08-18T10:43:57.580Z,8.00
2022-08-18T10:46:33.111Z,7.40
2022-08-18T10:49:13.479Z,8.70
2022-08-18T10:52:03.359Z,9.00
2022-08-18T10:54:51.640Z,9.10
2022-08-18T10:58:12.165Z,8.10
2022-08-18T11:00:52.590Z,8.60
2022-08-18T11:06:21.398Z,8.00
2022-08-18T11:09:00.131Z,8.90
2022-08-18T11:11:40.801Z,8.10
2022-08-18T11:17:31.750Z,7.70
2022-08-18T11:20:03.027Z,7.70
2022-08-18T11:22:36.582Z,8.10
2022-08-18T11:25:35.331Z,7.90
2022-08-18T11:28:22.104Z,7.60
2022-08-18T11:30:59.759Z,8.80
2022-08-18T11:33:28.774Z,7.70
2022-08-18T11:36:01.836Z,7.90
2022-08-18T11:38:33.071Z,7.50
2022-08-18T11:41:23.365Z,7.90
2022-08-18T11:44:02.815Z,7.70
2022-08-18T11:46:39.111Z,8.10
2022-08-18T11:49:33.939Z,7.10
2022-08-18T11:52:29.097Z,7.00
2022-08-18T11:55:24.037Z,7.90
2022-08-18T11:57:59.734Z,7.60
2022-08-18T12:00:47.399Z,8.30
2022-08-18T12:03:41.624Z,8.10
2022-08-18T12:06:31.258Z,8.20
2022-08-18T12:09:30.599Z,7.40
2022-08-18T12:12:24.099Z,7.30
2022-08-18T12:15:17.565Z,7.40
2022-08-18T12:17:53.746Z,7.10
2022-08-18T12:20:23.232Z,7.60
2022-08-18T12:22:56.102Z,6.90
2022-08-18T12:25:25.705Z,6.30
2022-08-18T12:27:55.128Z,5.70
2022-08-18T12:30:24.671Z,7.60
2022-08-18T12:33:00.711Z,7.00
2022-08-18T12:35:35.169Z,7.10
2022-08-18T12:38:13.157Z,7.60
2022-08-18T12:40:43.242Z,6.40
2022-08-18T12:43:12.068Z,6.80
2022-08-18T12:45:41.979Z,6.30
2022-08-18T12:48:12.018Z,6.90
2022-08-18T12:50:54.447Z,6.90
2022-08-18T12:59:05.049Z,7.00
2022-08-18T13:11:14.976Z,7.10
2022-08-18T13:19:06.246Z,7.20
2022-08-18T13:27:18.579Z,6.20
2022-08-18T13:41:16.874Z,6.20
2022-08-18T13:43:48.333Z,6.80
2022-08-18T13:46:31.918Z,6.00
2022-08-18T13:49:33.520Z,6.20
2022-08-18T13:52:33.055Z,6.40
2022-08-18T13:55:41.639Z,7.00
2022-08-18T13:58:17.674Z,7.40
2022-08-18T14:01:42.083Z,7.00
2022-08-18T14:04:19.986Z,7.50
2022-08-18T14:06:57.118Z,6.80
2022-08-18T14:09:36.913Z,7.40
2022-08-18T14:12:43.428Z,7.40
2022-08-18T14:15:25.150Z,7.80
2022-08-18T14:18:05.964Z,7.40
2022-08-18T14:20:56.886Z,8.30
2022-08-18T14:24:10.612Z,6.80
2022-08-18T14:26:50.191Z,7.70
2022-08-18T14:29:46.428Z,7.10
2022-08-18T14:32:29.533Z,7.50
2022-08-18T14:35:26.982Z,6.80
2022-08-18T14:38:04.170Z,6.50
2022-08-18T14:40:55.259Z,7.20
2022-08-18T14:43:24.875Z,6.50
2022-08-18T14:45:58.028Z,6.70
2022-08-18T14:48:30.676Z,6.80
2022-08-18T14:51:03.044Z,6.40
2022-08-18T14:54:01.104Z,6.90
2022-08-18T14:56:29.930Z,6.90
2022-08-18T14:59:02.244Z,7.00
2022-08-18T15:01:34.801Z,6.90
2022-08-18T15:04:19.010Z,7.30
2022-08-18T15:07:03.555Z,6.40
2022-08-18T15:09:39.206Z,7.20
2022-08-18T15:12:09.153Z,6.60
2022-08-18T15:14:44.329Z,6.70
2022-08-18T15:17:30.649Z,7.10
2022-08-18T15:20:10.681Z,7.70
2022-08-18T15:23:02.313Z,7.00
2022-08-18T15:25:43.965Z,6.90
2022-08-18T15:28:26.545Z,6.80
2022-08-18T15:33:51.026Z,5.80
2022-08-18T15:36:29.491Z,6.70
2022-08-18T15:39:06.189Z,6.90
2022-08-18T15:44:36.159Z,5.50
2022-08-18T15:47:12.279Z,6.20
2022-08-18T15:49:43.197Z,6.20
2022-08-18T15:52:19.906Z,5.90
2022-08-18T15:54:51.156Z,7.00
2022-08-18T15:57:40.131Z,6.30
2022-08-18T16:00:12.082Z,6.80
2022-08-18T16:03:00.842Z,6.70
2022-08-18T16:05:43.834Z,7.10
2022-08-18T16:08:24.448Z,6.00
2022-08-18T16:10:59.489Z,7.10
2022-08-18T16:13:42.652Z,6.20
2022-08-18T16:16:35.790Z,7.10
2022-08-18T16:19:09.781Z,6.60
2022-08-18T16:21:42.234Z,6.70
2022-08-18T16:24:14.578Z,7.40
2022-08-18T16:26:46.969Z,6.70
2022-08-18T16:29:16.203Z,6.90
2022-08-18T16:31:53.379Z,7.00
2022-08-18T16:34:30.454Z,6.70
2022-08-18T16:37:02.754Z,7.00
2022-08-18T16:39:36.436Z,6.90
2022-08-18T16:42:05.827Z,7.00
2022-08-18T16:44:36.026Z,6.70
2022-08-18T16:47:06.705Z,6.30
2022-08-18T16:49:37.006Z,7.20
2022-08-18T16:52:25.257Z,6.40
2022-08-18T16:54:59.210Z,6.70
2022-08-18T16:57:53.914Z,8.90
2022-08-18T17:00:54.743Z,7.50
2022-08-18T17:03:43.493Z,7.50
2022-08-18T17:06:19.119Z,7.90
2022-08-18T17:09:01.833Z,7.40
2022-08-18T17:11:51.273Z,7.20
2022-08-18T17:14:29.528Z,7.50
2022-08-18T17:17:01.116Z,6.80
2022-08-18T17:22:06.094Z,7.10
2022-08-18T17:24:42.630Z,7.50
2022-08-18T17:27:36.756Z,8.80
2022-08-18T17:30:16.827Z,9.30
2022-08-18T17:33:13.466Z,9.30
2022-08-18T17:35:59.261Z,8.50
2022-08-18T17:38:46.099Z,7.80
2022-08-18T17:41:20.828Z,6.90
2022-08-18T17:43:50.188Z,7.20
2022-08-18T17:46:29.850Z,7.30
2022-08-18T17:49:30.627Z,7.20
2022-08-18T17:52:06.483Z,7.00
2022-08-18T17:54:49.610Z,7.90
2022-08-18T17:57:29.275Z,7.70
2022-08-18T18:00:12.366Z,7.60
2022-08-18T18:02:45.184Z,7.60
2022-08-18T18:05:35.013Z,7.20
2022-08-18T18:08:23.107Z,8.10
2022-08-18T18:11:14.634Z,7.30
2022-08-18T18:13:47.588Z,7.10
2022-08-18T18:16:35.955Z,8.10
2022-08-18T18:19:15.855Z,7.90
2022-08-18T18:22:00.771Z,7.40
2022-08-18T18:24:37.728Z,7.00
2022-08-18T18:27:32.781Z,8.10
2022-08-18T18:30:27.806Z,8.50
2022-08-18T18:33:19.870Z,8.40
2022-08-18T18:35:58.097Z,8.30
2022-08-18T18:38:49.417Z,7.70
2022-08-18T18:41:18.666Z,6.70
2022-08-18T18:44:20.486Z,6.90
2022-08-18T18:47:32.070Z,8.10
2022-08-18T18:50:18.581Z,7.80
2022-08-18T18:53:18.271Z,7.10
2022-08-18T18:56:02.161Z,6.90
2022-08-18T18:58:40.974Z,6.30
2022-08-18T19:01:25.134Z,7.30
2022-08-18T19:04:14.141Z,5.20
2022-08-18T19:10:23.707Z,6.60
2022-08-18T19:13:08.183Z,5.50
2022-08-18T19:16:41.347Z,5.40
2022-08-18T19:19:37.051Z,4.90
2022-08-18T19:22:33.454Z,5.80
2022-08-18T19:25:56.051Z,5.80
2022-08-18T19:29:11.873Z,6.50
2022-08-18T19:31:50.310Z,6.90
2022-08-18T19:34:31.300Z,7.00
2022-08-18T19:37:12.239Z,7.00
2022-08-18T19:40:52.659Z,6.50
2022-08-18T19:43:33.230Z,7.30
2022-08-18T19:46:14.106Z,7.80
2022-08-18T19:49:16.743Z,9.60
2022-08-18T19:51:49.429Z,7.80
2022-08-18T19:54:52.104Z,7.10
2022-08-18T20:00:21.820Z,7.40
2022-08-18T20:03:14.806Z,7.20
2022-08-18T20:06:41.286Z,6.50
2022-08-18T20:09:56.660Z,6.70
2022-08-18T20:12:48.162Z,6.60
2022-08-18T20:15:28.959Z,6.90
2022-08-18T20:18:20.148Z,7.10
2022-08-18T20:21:45.975Z,7.20
2022-08-18T20:24:57.775Z,7.40
2022-08-18T20:27:43.403Z,7.30
2022-08-18T20:30:49.497Z,7.70
2022-08-18T20:33:33.575Z,9.00
2022-08-18T20:36:33.604Z,7.70
2022-08-18T20:39:45.659Z,7.40
2022-08-18T20:42:55.805Z,8.30
2022-08-18T20:45:46.195Z,8.40
2022-08-18T20:49:12.957Z,8.30
2022-08-18T20:52:04.014Z,8.80
2022-08-18T20:54:59.956Z,9.00
2022-08-18T20:57:37.678Z,9.10
2022-08-18T21:00:26.909Z,8.70
2022-08-18T21:02:59.250Z,8.90
2022-08-18T21:05:34.887Z,8.10
2022-08-18T21:08:27.628Z,8.30
2022-08-18T21:11:53.435Z,8.80
2022-08-18T21:14:33.212Z,8.70
2022-08-18T21:17:14.073Z,10.10
2022-08-18T21:19:45.390Z,8.90
2022-08-18T21:22:15.036Z,8.90
2022-08-18T21:24:51.357Z,8.50
2022-08-18T21:27:27.167Z,9.00
2022-08-18T21:30:06.854Z,10.00
2022-08-18T21:32:38.391Z,8.80
2022-08-18T21:35:38.601Z,8.50
2022-08-18T21:38:13.814Z,8.90
2022-08-18T21:40:49.585Z,8.30
2022-08-18T21:44:04.012Z,8.80
2022-08-18T21:46:35.988Z,8.60
2022-08-18T21:49:28.839Z,8.70
2022-08-18T21:52:03.429Z,8.30
2022-08-18T21:54:42.140Z,8.20
2022-08-18T21:58:04.686Z,8.60
2022-08-18T22:00:41.755Z,9.20
2022-08-18T22:03:27.085Z,8.20
2022-08-18T22:06:17.489Z,8.50
2022-08-18T22:09:26.835Z,9.10
2022-08-18T22:12:42.165Z,8.20
2022-08-18T22:15:23.426Z,8.80
2022-08-18T22:17:55.399Z,8.40
2022-08-18T22:20:54.737Z,8.40
2022-08-18T22:23:58.262Z,8.00
2022-08-18T22:26:35.377Z,8.10
2022-08-18T22:29:45.837Z,8.70
2022-08-18T22:32:14.741Z,8.10
2022-08-18T22:34:44.031Z,8.50
2022-08-18T22:37:20.726Z,8.50
2022-08-18T22:40:02.610Z,7.60
2022-08-18T22:42:38.410Z,8.40
2022-08-18T22:45:15.810Z,8.30
2022-08-18T22:47:45.875Z,9.10
2022-08-18T22:50:16.086Z,8.10
2022-08-18T22:52:48.505Z,8.30
2022-08-18T22:55:22.138Z,8.20
2022-08-18T22:57:55.763Z,8.10
2022-08-18T23:00:26.699Z,8.50
2022-08-18T23:02:56.191Z,8.10
2022-08-18T23:05:25.981Z,8.90
2022-08-18T23:07:55.130Z,9.40
2022-08-18T23:10:23.840Z,8.90
2022-08-18T23:12:52.565Z,8.90
2022-08-18T23:15:42.273Z,9.10
2022-08-18T23:18:11.015Z,8.60
2022-08-18T23:20:41.049Z,8.80
2022-08-18T23:23:09.766Z,9.40
2022-08-18T23:25:39.702Z,9.20
2022-08-18T23:28:10.648Z,9.10
2022-08-18T23:30:41.064Z,8.60
2022-08-18T23:33:10.611Z,9.50
2022-08-18T23:35:40.427Z,8.80
2022-08-18T23:38:13.761Z,9.20
2022-08-18T23:40:50.490Z,9.60
2022-08-18T23:43:20.229Z,8.50
2022-08-18T23:45:50.619Z,8.60
2022-08-18T23:48:23.649Z,8.60
2022-08-18T23:50:52.214Z,8.20
2022-08-18T23:53:20.748Z,8.40
2022-08-18T23:55:49.314Z,9.40
2022-08-18T23:58:17.926Z,8.70
